< < Back
Terminal Aerodrome Forecast


Current Version              Previous Versions:   1  2  3  4  5  6  7  8  9  

Terminal Aerodrome Forecast

739
FTUS44 KOHX 052339
TAFCSV
TAF
KCSV 052339Z 0600/0624 32008KT P6SM BKN035
     FM060800 33005KT 4SM BR BKN030
     FM061500 35010KT P6SM SKC=

Latest METAR

561
SAUS70 KWBC 060000 RRL
MTRCSV
METAR KCSV 052353Z AUTO 32008G15KT 10SM FEW042 09/03 A2989 RMK AO2
SLP123 60003 T00890033 10106 20067 51011


USA.gov is the U.S. government's official web portal to all federal, state and local government web resources and services.